Time;durP1;ratioP1;P1;durP2;ratioP2;P2;SDS_P1;SDS_P2;PMS_P1;PMS_P2;Temp;Humidity;BMP_temperature;BMP_pressure;BME280_temperature;BME280_humidity;BME280_pressure;Samples;Min_cycle;Max_cycle;Signal;HPM_P1;HPM_P2
2023/03/30 00:01:54;;;;;;;6.18;3.03;;;10.80;99.90;;;;;;4677063;28;10000821;-72
2023/03/30 00:04:33;;;;;;;6.07;3.30;;;10.80;99.90;;;;;;5023556;28;20033;-72
2023/03/30 00:07:00;;;;;;;8.27;3.17;;;10.80;99.90;;;;;;5026978;28;23306;-73
2023/03/30 00:09:29;;;;;;;5.20;3.15;;;10.80;99.90;;;;;;5028125;28;20034;-73
2023/03/30 00:12:03;;;;;;;5.72;3.15;;;10.80;99.90;;;;;;5025301;28;20037;-73
2023/03/30 00:14:41;;;;;;;6.07;3.13;;;10.80;99.90;;;;;;5026714;28;20444;-73
2023/03/30 00:17:07;;;;;;;5.70;3.40;;;10.80;99.90;;;;;;5007226;28;20029;-73
2023/03/30 00:19:36;;;;;;;5.18;2.92;;;10.80;99.90;;;;;;5025040;28;20057;-73
2023/03/30 00:22:03;;;;;;;8.98;3.92;;;10.70;99.90;;;;;;5022563;28;20064;-73
2023/03/30 00:24:29;;;;;;;6.90;3.70;;;10.70;99.90;;;;;;5030381;28;20401;-73
2023/03/30 00:26:55;;;;;;;6.00;2.92;;;10.70;99.90;;;;;;5029226;28;20025;-74
2023/03/30 00:29:21;;;;;;;6.95;3.17;;;10.60;99.90;;;;;;5027438;28;20032;-73
2023/03/30 00:31:47;;;;;;;5.43;3.17;;;10.60;99.90;;;;;;5021709;28;20091;-73
2023/03/30 00:34:13;;;;;;;7.25;3.13;;;10.50;99.90;;;;;;5031704;28;20052;-73
2023/03/30 00:36:39;;;;;;;7.90;3.42;;;10.50;99.90;;;;;;5029891;28;20020;-73
2023/03/30 00:39:15;;;;;;;8.77;2.88;;;10.50;99.90;;;;;;5028818;28;20049;-74
2023/03/30 00:41:52;;;;;;;6.55;3.17;;;10.40;99.90;;;;;;5023108;28;20026;-73
2023/03/30 00:44:58;;;;;;;5.07;3.00;;;10.50;99.90;;;;;;5028206;28;20057;-73
2023/03/30 00:47:34;;;;;;;6.10;2.90;;;10.50;99.90;;;;;;5030783;28;20037;-74
2023/03/30 00:50:12;;;;;;;6.32;2.95;;;10.60;99.90;;;;;;5028212;28;20029;-73
2023/03/30 00:52:51;;;;;;;6.85;3.00;;;10.60;99.90;;;;;;5027482;28;20025;-73
2023/03/30 00:55:21;;;;;;;4.85;2.75;;;10.60;99.90;;;;;;5015993;28;20029;-72
2023/03/30 00:58:01;;;;;;;7.43;3.00;;;10.60;99.90;;;;;;5029847;28;20103;-73
2023/03/30 01:00:28;;;;;;;6.20;3.00;;;10.60;99.90;;;;;;5027927;28;20022;-73
2023/03/30 01:03:05;;;;;;;4.78;2.63;;;10.60;99.90;;;;;;5026132;28;20030;-73
2023/03/30 01:05:40;;;;;;;7.90;3.33;;;10.60;99.90;;;;;;5021110;28;20049;-73
2023/03/30 01:08:15;;;;;;;9.20;2.60;;;10.60;99.90;;;;;;5026410;28;20441;-73
2023/03/30 01:10:49;;;;;;;8.30;2.80;;;10.50;99.90;;;;;;5020697;28;20075;-73
2023/03/30 01:13:24;;;;;;;5.78;3.53;;;10.50;99.90;;;;;;5022428;28;20041;-72
2023/03/30 01:16:27;;;;;;;6.10;3.30;;;10.50;99.90;;;;;;5025637;28;20029;-73
2023/03/30 01:19:40;;;;;;;5.85;2.97;;;10.50;99.90;;;;;;5017266;28;20033;-73
2023/03/30 01:22:42;;;;;;;7.45;3.25;;;10.40;99.90;;;;;;5027998;28;20049;-73
2023/03/30 01:25:17;;;;;;;7.35;2.70;;;10.30;99.90;;;;;;5024676;28;20033;-73
2023/03/30 01:28:09;;;;;;;6.78;2.67;;;10.30;99.90;;;;;;5027816;28;20410;-73
2023/03/30 01:31:06;;;;;;;6.07;3.10;;;10.30;99.90;;;;;;5027303;28;20052;-73
2023/03/30 01:33:40;;;;;;;12.95;3.10;;;10.20;99.90;;;;;;5027141;28;20410;-73
2023/03/30 01:36:33;;;;;;;7.38;3.10;;;10.10;99.90;;;;;;5024117;28;20117;-73
2023/03/30 01:39:35;;;;;;;5.25;2.95;;;10.10;99.90;;;;;;5025341;28;20441;-73
2023/03/30 01:42:09;;;;;;;7.47;3.28;;;10.00;99.90;;;;;;5020627;28;20033;-73
2023/03/30 01:44:50;;;;;;;;;;;10.00;99.90;;;;;;5024284;28;20044;-73
2023/03/30 01:47:24;;;;;;;6.65;3.35;;;10.00;99.90;;;;;;5016507;28;19916;-73
2023/03/30 01:50:05;;;;;;;5.32;3.08;;;10.00;99.90;;;;;;5022459;28;20037;-73
2023/03/30 01:52:40;;;;;;;4.50;2.90;;;10.00;99.90;;;;;;5026774;28;20033;-73
2023/03/30 01:55:30;;;;;;;7.68;3.10;;;10.10;99.90;;;;;;5028065;28;20037;-73
2023/03/30 01:58:23;;;;;;;6.88;3.22;;;10.20;99.90;;;;;;5022331;28;20421;-73
2023/03/30 02:00:57;;;;;;;7.68;3.38;;;10.30;99.90;;;;;;5014430;28;20041;-73
2023/03/30 02:03:37;;;;;;;4.32;2.78;;;10.40;99.90;;;;;;5008772;28;20447;-73
2023/03/30 02:06:22;;;;;;;10.18;3.28;;;10.40;99.90;;;;;;5025535;28;20033;-73
2023/03/30 02:08:56;;;;;;;6.75;3.03;;;10.40;99.90;;;;;;5023484;28;20042;-73
2023/03/30 02:11:32;;;;;;;6.63;3.03;;;10.40;99.90;;;;;;5023275;28;20042;-73
2023/03/30 02:14:05;;;;;;;4.70;2.65;;;10.40;99.90;;;;;;5014939;28;20509;-73
2023/03/30 02:16:53;;;;;;;6.20;2.80;;;10.40;99.90;;;;;;5013152;28;20025;-72
2023/03/30 02:19:22;;;;;;;6.38;2.90;;;10.40;99.90;;;;;;5011723;28;20025;-73
2023/03/30 02:21:49;;;;;;;6.97;3.40;;;10.30;99.90;;;;;;5017714;28;20587;-73
2023/03/30 02:24:29;;;;;;;10.80;3.30;;;10.30;99.90;;;;;;5029227;28;20121;-73
2023/03/30 02:27:01;;;;;;;5.60;3.08;;;10.30;99.90;;;;;;5028571;28;20038;-72
2023/03/30 02:29:36;;;;;;;7.72;3.03;;;10.20;99.90;;;;;;5013838;28;20030;-73
2023/03/30 02:32:15;;;;;;;8.05;3.05;;;10.20;99.90;;;;;;5021511;28;20057;-73
2023/03/30 02:35:27;;;;;;;6.95;2.70;;;10.20;99.90;;;;;;5026382;28;20045;-73
2023/03/30 02:38:17;;;;;;;9.63;3.25;;;10.10;99.90;;;;;;5026403;28;20041;-73
2023/03/30 02:41:00;;;;;;;8.85;2.70;;;10.10;99.90;;;;;;5025438;28;20030;-73
2023/03/30 02:43:46;;;;;;;;;;;10.10;99.90;;;;;;5025341;28;20037;-73
2023/03/30 02:46:51;;;;;;;5.60;2.90;;;10.10;99.90;;;;;;5023900;28;20003;-73
2023/03/30 02:49:34;;;;;;;5.72;2.60;;;10.10;99.90;;;;;;5022272;28;20093;-73
2023/03/30 02:52:16;;;;;;;9.38;2.90;;;10.10;99.90;;;;;;5022855;28;20030;-73
2023/03/30 02:55:06;;;;;;;7.55;3.00;;;10.20;99.90;;;;;;5026428;28;20033;-73
2023/03/30 02:57:53;;;;;;;4.97;2.80;;;10.20;99.90;;;;;;5016939;28;20112;-73
2023/03/30 03:00:46;;;;;;;10.00;2.78;;;10.20;99.90;;;;;;5024760;28;20022;-73
2023/03/30 03:03:33;;;;;;;7.45;2.95;;;10.20;99.90;;;;;;5012678;28;20025;-73
2023/03/30 03:06:11;;;;;;;8.38;2.70;;;10.20;99.90;;;;;;5027682;28;20088;-73
2023/03/30 03:08:49;;;;;;;9.35;2.70;;;10.30;99.90;;;;;;5025575;28;20041;-73
2023/03/30 03:11:21;;;;;;;5.57;2.80;;;10.30;99.90;;;;;;5021183;28;20128;-73
2023/03/30 03:13:59;;;;;;;7.03;2.85;;;10.30;99.90;;;;;;5015505;28;20048;-73
2023/03/30 03:16:32;;;;;;;4.68;2.60;;;10.30;99.90;;;;;;5028687;28;20025;-73
2023/03/30 03:19:13;;;;;;;11.93;2.67;;;10.30;99.90;;;;;;5025713;28;20034;-72
2023/03/30 03:21:46;;;;;;;8.88;2.88;;;10.30;99.90;;;;;;5026510;28;20140;-73
2023/03/30 03:24:23;;;;;;;7.55;2.65;;;10.30;99.90;;;;;;5026704;28;20042;-73
2023/03/30 03:26:49;;;;;;;6.57;2.50;;;10.30;99.90;;;;;;5024306;28;20038;-74
2023/03/30 03:29:15;;;;;;;5.93;2.70;;;10.30;99.90;;;;;;5023765;28;20116;-73
2023/03/30 03:31:40;;;;;;;9.98;2.60;;;10.40;99.90;;;;;;5021961;28;20108;-73
2023/03/30 03:34:16;;;;;;;6.35;2.97;;;10.40;99.90;;;;;;5029161;28;20052;-72
2023/03/30 03:36:53;;;;;;;10.95;2.42;;;10.30;99.90;;;;;;5025112;28;20061;-73
2023/03/30 03:39:25;;;;;;;8.68;2.65;;;10.30;99.90;;;;;;5027325;28;20095;-72
2023/03/30 03:41:57;;;;;;;4.70;2.60;;;10.30;99.90;;;;;;5022187;28;20440;-72
2023/03/30 03:44:31;;;;;;;5.85;2.60;;;10.30;99.90;;;;;;5028050;28;20049;-73
2023/03/30 03:46:57;;;;;;;7.05;2.75;;;10.30;99.90;;;;;;5027573;28;20548;-72
2023/03/30 03:49:23;;;;;;;8.35;2.72;;;10.30;99.90;;;;;;5018509;28;20033;-73
2023/03/30 03:51:57;;;;;;;9.15;2.65;;;10.30;99.90;;;;;;5024829;28;20184;-73
2023/03/30 03:54:31;;;;;;;5.97;2.70;;;10.30;99.90;;;;;;5020828;28;20136;-73
2023/03/30 03:57:00;;;;;;;7.35;3.00;;;10.40;99.90;;;;;;5026184;28;20030;-73
2023/03/30 03:59:33;;;;;;;7.10;3.20;;;10.40;99.90;;;;;;5024957;28;20037;-73
2023/03/30 04:02:06;;;;;;;12.43;3.40;;;10.40;99.90;;;;;;5018837;28;20041;-73
2023/03/30 04:04:35;;;;;;;5.70;3.00;;;10.40;99.90;;;;;;5027993;28;20030;-73
2023/03/30 04:07:01;;;;;;;9.23;3.25;;;10.50;99.90;;;;;;5030286;28;20116;-73
2023/03/30 04:09:35;;;;;;;6.40;3.05;;;10.50;99.90;;;;;;5025129;28;20116;-73
2023/03/30 04:12:10;;;;;;;11.77;3.10;;;10.50;99.90;;;;;;5031999;28;20046;-73
2023/03/30 04:14:43;;;;;;;16.38;3.30;;;10.50;99.90;;;;;;5026008;28;20037;-73
2023/03/30 04:17:15;;;;;;;6.15;2.70;;;10.60;99.90;;;;;;5028941;28;20508;-73
2023/03/30 04:19:44;;;;;;;8.55;3.25;;;10.60;99.90;;;;;;5030790;28;20033;-74
2023/03/30 04:22:12;;;;;;;15.55;3.17;;;10.60;99.90;;;;;;5027535;28;20034;-73
2023/03/30 04:24:46;;;;;;;10.77;3.00;;;10.60;99.90;;;;;;5021854;28;20042;-73
2023/03/30 04:27:27;;;;;;;8.85;2.97;;;10.60;99.90;;;;;;5027916;28;20041;-74
2023/03/30 04:29:58;;;;;;;12.50;3.47;;;10.60;99.90;;;;;;5027479;28;20095;-74
2023/03/30 04:32:33;;;;;;;10.93;3.78;;;10.60;99.90;;;;;;5028458;28;20506;-72
2023/03/30 04:35:00;;;;;;;13.57;3.08;;;10.60;99.90;;;;;;5023570;28;20049;-73
2023/03/30 04:37:29;;;;;;;9.93;2.90;;;10.60;99.90;;;;;;5023518;28;20048;-73
2023/03/30 04:40:00;;;;;;;10.07;3.08;;;10.60;99.90;;;;;;5027478;28;20390;-73
2023/03/30 04:42:36;;;;;;;12.25;3.60;;;10.60;99.90;;;;;;5031149;28;20120;-73
2023/03/30 04:45:04;;;;;;;10.65;3.25;;;10.50;99.90;;;;;;5028039;28;20087;-73
2023/03/30 04:47:31;;;;;;;9.98;3.25;;;10.50;99.90;;;;;;5027543;28;20037;-73
2023/03/30 04:50:02;;;;;;;5.88;2.90;;;10.50;99.90;;;;;;5026898;28;20037;-73
2023/03/30 04:52:38;;;;;;;7.57;2.72;;;10.40;99.90;;;;;;5027248;28;20064;-73
2023/03/30 04:55:04;;;;;;;9.40;3.22;;;10.30;99.90;;;;;;5022072;28;20045;-73
2023/03/30 04:57:33;;;;;;;8.90;2.67;;;10.30;99.90;;;;;;5021037;28;20116;-73
2023/03/30 04:59:59;;;;;;;5.47;2.70;;;10.20;99.90;;;;;;4322515;28;10000994;-73
2023/03/30 05:02:25;;;;;;;12.38;3.83;;;10.10;99.90;;;;;;5005262;28;20038;-73
2023/03/30 05:04:52;;;;;;;9.23;3.10;;;10.00;99.90;;;;;;5013265;28;20049;-73
2023/03/30 05:07:20;;;;;;;14.98;4.82;;;10.00;99.90;;;;;;5017690;28;20063;-73
2023/03/30 05:09:47;;;;;;;15.18;6.00;;;9.90;99.90;;;;;;5018147;28;20037;-73
2023/03/30 05:12:15;;;;;;;15.23;5.57;;;10.00;99.90;;;;;;5005045;28;20034;-73
2023/03/30 05:14:44;;;;;;;14.15;4.80;;;10.00;99.90;;;;;;4997068;28;20034;-73
2023/03/30 05:17:16;;;;;;;10.40;4.07;;;10.00;99.90;;;;;;4988068;28;20037;-73
2023/03/30 05:19:48;;;;;;;9.43;3.90;;;10.10;99.90;;;;;;4993231;28;20029;-73
2023/03/30 05:22:19;;;;;;;14.23;4.60;;;10.20;99.90;;;;;;4993128;28;20052;-73
2023/03/30 05:24:45;;;;;;;11.38;4.93;;;10.20;99.90;;;;;;5001548;28;20029;-73
2023/03/30 05:27:12;;;;;;;10.88;3.47;;;10.30;99.90;;;;;;5012701;28;20478;-73
2023/03/30 05:29:38;;;;;;;10.65;3.20;;;10.40;99.90;;;;;;5005450;28;20036;-73
2023/03/30 05:32:04;;;;;;;8.43;3.75;;;10.40;99.90;;;;;;5012543;28;20050;-73
2023/03/30 05:34:34;;;;;;;8.23;3.22;;;10.30;99.90;;;;;;5016147;28;20033;-73
2023/03/30 05:37:01;;;;;;;14.52;4.20;;;10.40;99.90;;;;;;5019128;28;20021;-74
2023/03/30 05:39:28;;;;;;;11.55;4.70;;;10.40;99.90;;;;;;5022133;28;20021;-73
2023/03/30 05:41:55;;;;;;;9.60;4.50;;;10.40;99.90;;;;;;5026130;28;20021;-74
2023/03/30 05:44:23;;;;;;;11.32;4.75;;;10.40;99.90;;;;;;5025035;28;20059;-73
2023/03/30 05:46:50;;;;;;;13.85;5.45;;;10.50;99.90;;;;;;5017664;28;20029;-73
2023/03/30 05:49:16;;;;;;;13.50;5.57;;;10.50;99.90;;;;;;5019322;28;20034;-73
2023/03/30 05:51:43;;;;;;;14.55;4.63;;;10.50;99.90;;;;;;5021755;28;20041;-73
2023/03/30 05:54:11;;;;;;;13.32;3.55;;;10.50;99.90;;;;;;5024046;28;20056;-73
2023/03/30 05:56:37;;;;;;;8.15;3.38;;;10.60;99.90;;;;;;5023031;28;20018;-73
2023/03/30 05:59:04;;;;;;;8.95;3.47;;;10.70;99.90;;;;;;5022752;28;20179;-73
2023/03/30 06:01:32;;;;;;;9.88;3.15;;;10.70;99.90;;;;;;5012122;28;20108;-73
2023/03/30 06:03:58;;;;;;;10.95;3.63;;;10.80;99.90;;;;;;5012126;28;20112;-73
2023/03/30 06:06:28;;;;;;;13.70;3.65;;;10.70;99.90;;;;;;5012847;28;20041;-73
2023/03/30 06:08:54;;;;;;;6.07;3.05;;;10.80;99.90;;;;;;5025846;28;20037;-73
2023/03/30 06:11:20;;;;;;;12.95;3.65;;;10.80;99.90;;;;;;5020636;28;20057;-72
2023/03/30 06:13:46;;;;;;;8.40;3.25;;;10.90;99.90;;;;;;5024520;28;20562;-73
2023/03/30 06:16:14;;;;;;;12.10;3.70;;;10.90;99.90;;;;;;5019667;28;20116;-73
2023/03/30 06:18:40;;;;;;;11.50;3.47;;;10.90;99.90;;;;;;5019940;28;20057;-73
2023/03/30 06:21:07;;;;;;;12.25;4.00;;;10.90;99.90;;;;;;5024859;28;20470;-73
2023/03/30 06:23:36;;;;;;;8.10;3.60;;;10.90;99.90;;;;;;5017173;28;20034;-73
2023/03/30 06:26:02;;;;;;;12.90;4.00;;;10.90;99.90;;;;;;5017884;28;20037;-73
2023/03/30 06:28:28;;;;;;;7.68;3.90;;;10.90;99.90;;;;;;5019002;28;20048;-73
2023/03/30 06:30:54;;;;;;;16.90;4.32;;;11.00;99.90;;;;;;5023839;28;20033;-73
2023/03/30 06:33:20;;;;;;;18.02;7.57;;;11.00;99.90;;;;;;5024470;28;20057;-73
2023/03/30 06:35:50;;;;;;;13.57;5.55;;;11.00;99.90;;;;;;5021462;28;20021;-73
2023/03/30 06:38:19;;;;;;;15.20;5.75;;;11.00;99.90;;;;;;5023924;28;20372;-75
2023/03/30 06:40:45;;;;;;;19.27;12.13;;;11.00;99.90;;;;;;5020026;28;20028;-75
2023/03/30 06:43:21;;;;;;;13.38;5.43;;;11.00;99.90;;;;;;5027662;28;20044;-76
2023/03/30 06:45:56;;;;;;;16.33;5.40;;;11.10;99.90;;;;;;5014333;28;20071;-75
2023/03/30 06:48:24;;;;;;;11.10;4.40;;;11.10;99.90;;;;;;5023256;28;20033;-75
2023/03/30 06:50:52;;;;;;;8.98;3.88;;;11.10;99.90;;;;;;5026734;28;20056;-75
2023/03/30 06:53:21;;;;;;;13.10;4.10;;;11.10;99.90;;;;;;5028228;28;20094;-75
2023/03/30 06:55:55;;;;;;;9.40;3.90;;;11.20;99.90;;;;;;5025774;28;20490;-75
2023/03/30 06:58:26;;;;;;;9.90;3.47;;;11.30;99.90;;;;;;5020186;28;20030;-75
2023/03/30 07:00:52;;;;;;;13.15;3.75;;;11.30;99.90;;;;;;5017030;28;20453;-74
2023/03/30 07:03:18;;;;;;;13.55;3.65;;;11.40;99.90;;;;;;5024122;28;20039;-74
2023/03/30 07:05:48;;;;;;;10.18;3.33;;;11.40;99.90;;;;;;5027564;28;20041;-74
2023/03/30 07:08:14;;;;;;;14.18;4.07;;;11.40;99.90;;;;;;5025397;28;20417;-74
2023/03/30 07:10:45;;;;;;;13.30;3.70;;;11.40;99.90;;;;;;5024143;28;20083;-74
2023/03/30 07:13:16;;;;;;;9.10;3.40;;;11.40;99.90;;;;;;5027161;28;20033;-74
2023/03/30 07:15:44;;;;;;;14.93;3.58;;;11.40;99.90;;;;;;5014589;28;20105;-74
2023/03/30 07:18:10;;;;;;;15.25;3.47;;;11.40;99.90;;;;;;5023330;28;20021;-74
2023/03/30 07:20:37;;;;;;;11.75;3.65;;;11.40;99.90;;;;;;5026496;28;20026;-74
2023/03/30 07:23:05;;;;;;;12.13;3.70;;;11.40;99.90;;;;;;5019109;28;20494;-75
2023/03/30 07:25:31;;;;;;;12.48;4.28;;;11.40;99.90;;;;;;5016489;28;20482;-74
2023/03/30 07:27:58;;;;;;;15.48;4.43;;;11.40;99.90;;;;;;5025302;28;20393;-74
2023/03/30 07:30:26;;;;;;;13.98;4.45;;;11.40;99.90;;;;;;5031245;28;20030;-74
2023/03/30 07:32:58;;;;;;;12.02;4.18;;;11.40;99.90;;;;;;5026319;28;20127;-74
2023/03/30 07:35:28;;;;;;;9.15;4.00;;;11.30;99.90;;;;;;5023617;28;20087;-75
2023/03/30 07:37:55;;;;;;;10.18;3.92;;;11.30;99.90;;;;;;5027108;28;20033;-72
2023/03/30 07:40:29;;;;;;;17.65;4.32;;;11.20;99.90;;;;;;5021948;28;20828;-71
2023/03/30 07:43:06;;;;;;;15.35;4.47;;;11.20;99.90;;;;;;5024643;28;20033;-72
2023/03/30 07:45:38;;;;;;;10.80;4.35;;;11.20;99.90;;;;;;5022703;28;20033;-72
2023/03/30 07:48:11;;;;;;;12.90;4.00;;;11.20;99.90;;;;;;5030987;28;20048;-71
2023/03/30 07:50:42;;;;;;;14.15;4.28;;;11.20;99.90;;;;;;5028767;28;20034;-72
2023/03/30 07:53:14;;;;;;;14.38;4.47;;;;;;;;;;5029238;28;20497;-72
2023/03/30 07:55:46;;;;;;;11.82;4.13;;;11.50;99.90;;;;;;5028487;28;20556;-72
2023/03/30 07:58:14;;;;;;;16.13;4.40;;;11.50;99.90;;;;;;5024885;28;20034;-72
2023/03/30 08:00:42;;;;;;;13.75;3.92;;;11.60;99.90;;;;;;5022609;28;20096;-72
2023/03/30 08:03:14;;;;;;;16.00;3.92;;;11.70;99.90;;;;;;5021205;28;20520;-72
2023/03/30 08:05:42;;;;;;;12.95;4.32;;;11.80;99.90;;;;;;5020312;28;20088;-72
2023/03/30 08:08:14;;;;;;;15.10;4.88;;;11.90;99.90;;;;;;5028252;28;20401;-72
2023/03/30 08:10:45;;;;;;;19.27;4.85;;;12.00;99.90;;;;;;5024409;28;20026;-72
2023/03/30 08:13:12;;;;;;;13.32;4.78;;;12.10;99.90;;;;;;5025254;28;20526;-72
2023/03/30 08:15:43;;;;;;;16.55;4.28;;;12.20;99.90;;;;;;5032208;28;20045;-71
2023/03/30 08:18:12;;;;;;;14.82;4.20;;;12.30;99.90;;;;;;5026428;28;20025;-71
2023/03/30 08:20:40;;;;;;;14.35;4.05;;;12.40;99.90;;;;;;5024493;28;20087;-71
2023/03/30 08:23:18;;;;;;;12.95;4.10;;;12.40;99.90;;;;;;5025274;28;20087;-72
2023/03/30 08:25:51;;;;;;;16.70;3.75;;;12.50;99.90;;;;;;5025237;28;20498;-72
2023/03/30 08:28:18;;;;;;;14.95;3.85;;;12.50;99.90;;;;;;5024193;28;20446;-71
2023/03/30 08:30:46;;;;;;;16.15;3.97;;;12.60;99.90;;;;;;5031407;28;20033;-72
2023/03/30 08:33:17;;;;;;;13.55;3.72;;;12.80;99.90;;;;;;5024083;28;20128;-72
2023/03/30 08:35:52;;;;;;;16.13;3.92;;;12.90;99.90;;;;;;5019199;28;20496;-71
2023/03/30 08:38:25;;;;;;;17.77;3.80;;;13.00;99.90;;;;;;5029007;28;20044;-72
2023/03/30 08:40:52;;;;;;;;;;;13.20;99.90;;;;;;5023824;28;20091;-71
2023/03/30 08:43:46;;;;;;;15.10;3.95;;;13.40;99.90;;;;;;5030682;28;19905;-71
2023/03/30 08:46:18;;;;;;;10.32;4.13;;;13.50;99.90;;;;;;5023078;28;20040;-72
2023/03/30 08:48:56;;;;;;;9.80;3.45;;;13.80;99.90;;;;;;5020453;28;20418;-71
2023/03/30 08:51:32;;;;;;;12.82;3.83;;;13.90;99.90;;;;;;5026833;28;20033;-71
2023/03/30 08:54:04;;;;;;;12.95;3.70;;;14.10;99.90;;;;;;5028516;28;20033;-72
2023/03/30 08:56:39;;;;;;;15.95;4.28;;;14.30;99.90;;;;;;5023680;28;20026;-71
2023/03/30 08:59:11;;;;;;;16.10;3.53;;;14.30;99.90;;;;;;5026723;28;20060;-72
2023/03/30 09:02:01;;;;;;;14.73;3.60;;;14.40;99.90;;;;;;5025944;28;20083;-71
2023/03/30 09:05:01;;;;;;;11.40;3.58;;;14.60;99.90;;;;;;5019587;28;20038;-72
2023/03/30 09:07:58;;;;;;;16.25;4.05;;;14.60;99.90;;;;;;5017470;28;20029;-72
2023/03/30 09:10:29;;;;;;;16.08;3.83;;;;;;;;;;5015007;28;20031;-72
2023/03/30 09:13:06;;;;;;;14.32;3.65;;;14.60;99.90;;;;;;5014743;28;20038;-72
2023/03/30 09:16:11;;;;;;;12.43;3.80;;;14.60;99.90;;;;;;5015636;28;20375;-72
2023/03/30 09:18:44;;;;;;;11.85;3.90;;;14.70;99.90;;;;;;5026950;28;20025;-73
2023/03/30 09:21:12;;;;;;;13.77;4.38;;;15.00;99.90;;;;;;5026468;28;20409;-73
2023/03/30 09:23:39;;;;;;;14.30;5.32;;;15.20;99.90;;;;;;5022114;28;20100;-73
2023/03/30 09:26:14;;;;;;;11.82;3.53;;;;;;;;;;5028650;28;20452;-73
2023/03/30 09:29:02;;;;;;;12.80;4.07;;;15.50;99.90;;;;;;5026905;28;20029;-73
2023/03/30 09:31:50;;;;;;;11.60;3.70;;;15.50;99.90;;;;;;5020492;28;20112;-73
2023/03/30 09:34:46;;;;;;;12.15;3.72;;;15.50;99.90;;;;;;5024217;28;20046;-73
2023/03/30 09:37:17;;;;;;;13.07;3.55;;;15.40;99.90;;;;;;5020563;28;20310;-73
2023/03/30 09:39:50;;;;;;;12.57;3.53;;;15.30;99.90;;;;;;5014409;28;20204;-73
2023/03/30 09:42:58;;;;;;;14.15;3.60;;;15.20;99.90;;;;;;5025483;28;20041;-73
2023/03/30 09:45:32;;;;;;;8.55;3.45;;;15.10;99.90;;;;;;4971217;28;20506;-72
2023/03/30 09:48:07;;;;;;;13.73;3.42;;;15.10;99.90;;;;;;5018983;28;20037;-72
2023/03/30 09:50:45;;;;;;;7.57;2.97;;;15.10;99.90;;;;;;5023830;28;20042;-73
2023/03/30 09:53:25;;;;;;;9.70;3.05;;;15.10;99.90;;;;;;5024145;28;20280;-73
2023/03/30 09:56:09;;;;;;;14.02;3.85;;;15.10;99.90;;;;;;5025867;28;20046;-73
2023/03/30 09:58:35;;;;;;;13.23;3.67;;;15.10;99.90;;;;;;5016986;28;20036;-73
2023/03/30 10:01:17;;;;;;;12.73;3.40;;;15.10;99.90;;;;;;5024821;28;20116;-73
2023/03/30 10:04:04;;;;;;;14.82;3.53;;;15.10;99.90;;;;;;5017851;28;20069;-73
2023/03/30 10:06:31;;;;;;;15.20;3.65;;;15.20;99.90;;;;;;5019701;28;20029;-73
2023/03/30 10:08:59;;;;;;;9.45;3.55;;;15.20;99.90;;;;;;5015551;28;20063;-73
2023/03/30 10:11:47;;;;;;;12.82;3.47;;;15.20;99.90;;;;;;5019376;28;20124;-73
2023/03/30 10:14:37;;;;;;;10.55;3.45;;;15.30;99.90;;;;;;5015856;28;20470;-73
2023/03/30 10:17:06;;;;;;;12.32;3.50;;;15.40;99.90;;;;;;5022745;28;20040;-73
2023/03/30 10:19:42;;;;;;;8.32;2.97;;;15.40;99.90;;;;;;5019480;28;20044;-73
2023/03/30 10:22:17;;;;;;;9.30;3.10;;;15.50;99.90;;;;;;5010504;28;20081;-73
2023/03/30 10:25:09;;;;;;;8.68;3.38;;;15.60;99.90;;;;;;5020801;28;20474;-73
2023/03/30 10:27:44;;;;;;;11.13;3.00;;;15.70;99.90;;;;;;5023154;28;20490;-73
2023/03/30 10:30:18;;;;;;;13.32;3.53;;;15.70;99.90;;;;;;5022590;28;20026;-73
2023/03/30 10:32:46;;;;;;;8.85;2.90;;;16.00;99.90;;;;;;5020312;28;20049;-73
2023/03/30 10:35:24;;;;;;;11.25;2.90;;;16.00;99.90;;;;;;5018714;28;20325;-72
2023/03/30 10:37:59;;;;;;;13.38;3.60;;;16.10;99.90;;;;;;5023443;28;20052;-72
2023/03/30 10:40:41;;;;;;;12.95;3.30;;;16.10;99.90;;;;;;5020293;28;20460;-73
2023/03/30 10:43:24;;;;;;;12.38;2.85;;;16.00;99.90;;;;;;5023954;28;20330;-73
2023/03/30 10:45:55;;;;;;;11.77;3.42;;;15.90;99.90;;;;;;5023322;28;20367;-73
2023/03/30 10:48:45;;;;;;;11.75;3.30;;;15.90;99.90;;;;;;5024351;28;20037;-72
2023/03/30 10:51:38;;;;;;;10.38;3.42;;;15.80;99.90;;;;;;5020575;28;20025;-72
2023/03/30 10:54:26;;;;;;;14.95;3.33;;;15.60;99.90;;;;;;5018427;28;20061;-73
2023/03/30 10:57:12;;;;;;;11.55;3.25;;;15.50;99.90;;;;;;5020023;28;20614;-72
2023/03/30 10:59:57;;;;;;;9.73;2.97;;;15.40;99.90;;;;;;5017472;28;20021;-72
2023/03/30 11:02:44;;;;;;;9.75;3.05;;;15.40;99.90;;;;;;5019908;28;20117;-72
2023/03/30 11:05:18;;;;;;;7.82;2.80;;;15.50;99.90;;;;;;5019071;28;20115;-73
2023/03/30 11:08:00;;;;;;;10.02;2.60;;;15.50;99.90;;;;;;5017816;28;20398;-72
2023/03/30 11:10:40;;;;;;;11.52;3.05;;;15.50;99.90;;;;;;5014912;28;20033;-73
2023/03/30 11:13:16;;;;;;;7.95;2.70;;;15.60;99.90;;;;;;5020515;28;20037;-72
2023/03/30 11:16:04;;;;;;;8.63;2.40;;;15.60;99.90;;;;;;5010944;28;20565;-73
2023/03/30 11:18:47;;;;;;;13.75;3.00;;;15.40;99.90;;;;;;5021814;28;20517;-72
2023/03/30 11:21:30;;;;;;;10.88;2.58;;;15.10;99.90;;;;;;5021177;28;20057;-73
2023/03/30 11:24:19;;;;;;;9.70;3.30;;;14.50;99.90;;;;;;5022646;28;20041;-73
2023/03/30 11:26:58;;;;;;;9.30;2.70;;;14.00;99.90;;;;;;5022369;28;20057;-72
2023/03/30 11:29:33;;;;;;;7.88;2.42;;;13.60;99.90;;;;;;5017280;28;20060;-73
2023/03/30 11:32:31;;;;;;;5.32;1.60;;;13.20;99.90;;;;;;5022681;28;20136;-73
2023/03/30 11:35:26;;;;;;;8.75;1.75;;;12.80;99.90;;;;;;5021932;28;20048;-74
2023/03/30 11:38:03;;;;;;;7.00;1.70;;;12.30;99.90;;;;;;5021056;28;20454;-74
2023/03/30 11:40:37;;;;;;;3.80;1.00;;;11.90;99.90;;;;;;5025009;28;20740;-73
2023/03/30 11:43:10;;;;;;;3.78;1.58;;;11.70;99.90;;;;;;5020412;28;20029;-74
2023/03/30 11:45:54;;;;;;;2.97;1.30;;;11.70;99.90;;;;;;5025224;28;20132;-73
2023/03/30 11:48:53;;;;;;;2.15;1.20;;;11.50;99.90;;;;;;5015539;28;20026;-73
2023/03/30 11:51:38;;;;;;;3.80;1.13;;;11.60;99.90;;;;;;5014665;28;20072;-74
2023/03/30 11:54:28;;;;;;;4.85;1.20;;;11.50;99.90;;;;;;5022797;28;20041;-74
2023/03/30 11:57:18;;;;;;;7.47;1.63;;;11.50;99.90;;;;;;5014864;28;20462;-74
2023/03/30 12:00:08;;;;;;;6.25;1.40;;;11.50;99.90;;;;;;5015721;28;20177;-72
2023/03/30 12:02:48;;;;;;;7.90;1.65;;;11.50;99.90;;;;;;5019505;28;20398;-71
2023/03/30 12:05:17;;;;;;;8.02;1.90;;;11.50;99.90;;;;;;5022305;28;20033;-72
2023/03/30 12:07:55;;;;;;;3.92;1.52;;;11.40;99.90;;;;;;5016529;28;20034;-72
2023/03/30 12:10:32;;;;;;;2.92;1.33;;;11.30;99.90;;;;;;5022480;28;20029;-72
2023/03/30 12:12:59;;;;;;;3.58;1.27;;;11.30;99.90;;;;;;5023689;28;20474;-72
2023/03/30 12:15:43;;;;;;;2.65;1.00;;;11.40;99.90;;;;;;5026588;28;20048;-72
2023/03/30 12:18:28;;;;;;;5.93;1.10;;;11.40;99.90;;;;;;5027083;28;20021;-72
2023/03/30 12:21:18;;;;;;;4.55;1.67;;;11.50;99.90;;;;;;5026195;28;20022;-72
2023/03/30 12:23:59;;;;;;;2.80;1.00;;;11.70;99.90;;;;;;5027256;28;20018;-73
2023/03/30 12:26:36;;;;;;;1.55;1.00;;;11.70;99.90;;;;;;5025886;28;20029;-73
2023/03/30 12:29:12;;;;;;;3.92;1.08;;;11.80;99.90;;;;;;5019912;28;20486;-72
2023/03/30 12:31:56;;;;;;;2.58;1.13;;;12.00;99.90;;;;;;5021174;28;20896;-72
2023/03/30 12:34:24;;;;;;;6.18;1.48;;;12.20;99.90;;;;;;5026427;28;20052;-73
2023/03/30 12:37:37;;;;;;;1.40;0.73;;;12.30;99.90;;;;;;5022692;28;20028;-73
2023/03/30 12:40:07;;;;;;;2.58;1.00;;;12.30;99.90;;;;;;5017671;28;20368;-75
2023/03/30 12:42:55;;;;;;;2.33;0.88;;;12.40;99.90;;;;;;5024329;28;20156;-75
2023/03/30 12:45:36;;;;;;;4.20;1.05;;;12.40;99.90;;;;;;5028165;28;20025;-75
2023/03/30 12:48:15;;;;;;;2.72;1.00;;;12.40;99.90;;;;;;5024076;28;20029;-75
2023/03/30 12:51:03;;;;;;;3.00;0.68;;;12.40;99.90;;;;;;5021400;28;20021;-75
2023/03/30 12:54:15;;;;;;;5.20;0.70;;;12.40;99.90;;;;;;5024619;28;20371;-76
2023/03/30 12:56:57;;;;;;;1.77;0.57;;;12.60;99.90;;;;;;5018647;28;20048;-75
2023/03/30 12:59:38;;;;;;;4.18;0.70;;;13.10;99.90;;;;;;5025380;28;20037;-76
2023/03/30 13:02:29;;;;;;;1.40;0.50;;;13.60;99.90;;;;;;5028675;28;20037;-76
2023/03/30 13:04:59;;;;;;;1.45;0.40;;;14.00;99.90;;;;;;5023969;28;20033;-76
2023/03/30 13:07:33;;;;;;;3.17;0.63;;;14.20;99.90;;;;;;5022896;28;20033;-75
2023/03/30 13:10:25;;;;;;;3.72;0.70;;;14.40;99.90;;;;;;5016203;28;20041;-75
2023/03/30 13:12:59;;;;;;;3.72;0.45;;;14.60;99.90;;;;;;5023870;28;20083;-74
2023/03/30 13:15:54;;;;;;;4.72;0.80;;;14.80;99.90;;;;;;5020817;28;20034;-75
2023/03/30 13:18:40;;;;;;;1.98;0.50;;;15.10;99.90;;;;;;5013380;28;20501;-76
2023/03/30 13:21:21;;;;;;;1.27;0.50;;;15.00;99.90;;;;;;5015420;28;20498;-74
2023/03/30 13:24:25;;;;;;;3.35;0.93;;;15.10;99.90;;;;;;5022887;28;20033;-74
2023/03/30 13:26:52;;;;;;;2.85;0.60;;;15.20;99.90;;;;;;5024253;28;20056;-74
2023/03/30 13:29:23;;;;;;;0.88;0.30;;;15.10;99.90;;;;;;5020257;28;20065;-73